sensor_id;sensor_type;location;lat;lon;timestamp;P1;durP1;ratioP1;P2;durP2;ratioP2
19402;SDS011;9837;48.888;8.998;2022-08-24T00:01:09;1999.90;;;999.90;;
19402;SDS011;9837;48.888;8.998;2022-08-24T00:03:38;1999.90;;;999.90;;
19402;SDS011;9837;48.888;8.998;2022-08-24T00:06:05;1999.90;;;999.90;;
19402;SDS011;9837;48.888;8.998;2022-08-24T00:08:33;1999.90;;;999.90;;
19402;SDS011;9837;48.888;8.998;2022-08-24T00:10:59;1999.90;;;999.90;;
19402;SDS011;9837;48.888;8.998;2022-08-24T00:13:26;1999.90;;;999.90;;
19402;SDS011;9837;48.888;8.998;2022-08-24T00:15:52;1999.90;;;999.90;;
19402;SDS011;9837;48.888;8.998;2022-08-24T00:18:18;1999.90;;;999.90;;
19402;SDS011;9837;48.888;8.998;2022-08-24T00:20:44;1999.90;;;999.90;;
19402;SDS011;9837;48.888;8.998;2022-08-24T00:23:10;1999.90;;;999.90;;
19402;SDS011;9837;48.888;8.998;2022-08-24T00:25:36;1999.90;;;999.90;;
19402;SDS011;9837;48.888;8.998;2022-08-24T00:28:03;1999.90;;;999.90;;
19402;SDS011;9837;48.888;8.998;2022-08-24T00:30:29;1999.90;;;999.90;;
19402;SDS011;9837;48.888;8.998;2022-08-24T00:32:55;1999.90;;;999.90;;
19402;SDS011;9837;48.888;8.998;2022-08-24T00:35:22;1999.90;;;999.90;;
19402;SDS011;9837;48.888;8.998;2022-08-24T00:37:49;1999.90;;;999.90;;
19402;SDS011;9837;48.888;8.998;2022-08-24T00:42:44;1999.90;;;999.90;;
19402;SDS011;9837;48.888;8.998;2022-08-24T00:45:11;1999.90;;;999.90;;
19402;SDS011;9837;48.888;8.998;2022-08-24T00:47:41;1999.90;;;999.90;;
19402;SDS011;9837;48.888;8.998;2022-08-24T00:50:22;1999.90;;;999.90;;
19402;SDS011;9837;48.888;8.998;2022-08-24T00:52:56;1999.90;;;999.90;;
19402;SDS011;9837;48.888;8.998;2022-08-24T00:55:42;1999.90;;;999.90;;
19402;SDS011;9837;48.888;8.998;2022-08-24T00:58:17;1999.90;;;999.90;;
19402;SDS011;9837;48.888;8.998;2022-08-24T01:00:48;1999.90;;;999.90;;
19402;SDS011;9837;48.888;8.998;2022-08-24T01:03:19;1999.90;;;999.90;;
19402;SDS011;9837;48.888;8.998;2022-08-24T01:05:45;1999.90;;;999.90;;
19402;SDS011;9837;48.888;8.998;2022-08-24T01:08:13;1999.90;;;999.90;;
19402;SDS011;9837;48.888;8.998;2022-08-24T01:10:44;1999.90;;;999.90;;
19402;SDS011;9837;48.888;8.998;2022-08-24T01:13:14;1999.90;;;999.90;;
19402;SDS011;9837;48.888;8.998;2022-08-24T01:15:41;1999.90;;;999.90;;
19402;SDS011;9837;48.888;8.998;2022-08-24T01:18:12;1999.90;;;999.90;;
19402;SDS011;9837;48.888;8.998;2022-08-24T01:21:04;1999.90;;;999.90;;
19402;SDS011;9837;48.888;8.998;2022-08-24T01:23:39;1999.90;;;999.90;;
19402;SDS011;9837;48.888;8.998;2022-08-24T01:26:07;1999.90;;;999.90;;
19402;SDS011;9837;48.888;8.998;2022-08-24T01:28:34;1999.90;;;999.90;;
19402;SDS011;9837;48.888;8.998;2022-08-24T01:31:03;1999.90;;;999.90;;
19402;SDS011;9837;48.888;8.998;2022-08-24T01:33:30;1999.90;;;999.90;;
19402;SDS011;9837;48.888;8.998;2022-08-24T01:35:57;1999.90;;;999.90;;
19402;SDS011;9837;48.888;8.998;2022-08-24T01:38:47;1999.90;;;999.90;;
19402;SDS011;9837;48.888;8.998;2022-08-24T01:41:14;1999.90;;;999.90;;
19402;SDS011;9837;48.888;8.998;2022-08-24T01:43:40;1999.90;;;999.90;;
19402;SDS011;9837;48.888;8.998;2022-08-24T01:46:06;1999.90;;;999.90;;
19402;SDS011;9837;48.888;8.998;2022-08-24T01:48:31;1999.90;;;999.90;;
19402;SDS011;9837;48.888;8.998;2022-08-24T01:50:57;1999.90;;;999.90;;
19402;SDS011;9837;48.888;8.998;2022-08-24T01:53:24;1999.90;;;999.90;;
19402;SDS011;9837;48.888;8.998;2022-08-24T01:55:49;1999.90;;;999.90;;
19402;SDS011;9837;48.888;8.998;2022-08-24T01:58:15;1999.90;;;999.90;;
19402;SDS011;9837;48.888;8.998;2022-08-24T02:00:41;1999.90;;;999.90;;
19402;SDS011;9837;48.888;8.998;2022-08-24T02:03:09;1999.90;;;999.90;;
19402;SDS011;9837;48.888;8.998;2022-08-24T02:05:34;1999.90;;;999.90;;
19402;SDS011;9837;48.888;8.998;2022-08-24T02:08:00;1999.90;;;999.90;;
19402;SDS011;9837;48.888;8.998;2022-08-24T02:10:27;1999.90;;;999.90;;
19402;SDS011;9837;48.888;8.998;2022-08-24T02:12:53;1999.90;;;999.90;;
19402;SDS011;9837;48.888;8.998;2022-08-24T02:15:26;1999.90;;;999.90;;
19402;SDS011;9837;48.888;8.998;2022-08-24T02:17:54;1999.90;;;999.90;;
19402;SDS011;9837;48.888;8.998;2022-08-24T02:20:20;1999.90;;;999.90;;
19402;SDS011;9837;48.888;8.998;2022-08-24T02:22:47;1999.90;;;999.90;;
19402;SDS011;9837;48.888;8.998;2022-08-24T02:25:14;1999.90;;;999.90;;
19402;SDS011;9837;48.888;8.998;2022-08-24T02:27:40;1999.90;;;999.90;;
19402;SDS011;9837;48.888;8.998;2022-08-24T02:30:06;1999.90;;;999.90;;
19402;SDS011;9837;48.888;8.998;2022-08-24T02:32:33;1999.90;;;999.90;;
19402;SDS011;9837;48.888;8.998;2022-08-24T02:34:58;1999.90;;;999.90;;
19402;SDS011;9837;48.888;8.998;2022-08-24T02:37:24;1999.90;;;999.90;;
19402;SDS011;9837;48.888;8.998;2022-08-24T02:39:50;1999.90;;;999.90;;
19402;SDS011;9837;48.888;8.998;2022-08-24T02:42:16;1999.90;;;999.90;;
19402;SDS011;9837;48.888;8.998;2022-08-24T02:44:42;1999.90;;;999.90;;
19402;SDS011;9837;48.888;8.998;2022-08-24T02:47:08;1999.90;;;999.90;;
19402;SDS011;9837;48.888;8.998;2022-08-24T02:49:34;1999.90;;;999.90;;
19402;SDS011;9837;48.888;8.998;2022-08-24T02:52:00;1999.90;;;999.90;;
19402;SDS011;9837;48.888;8.998;2022-08-24T02:54:27;1999.90;;;999.90;;
19402;SDS011;9837;48.888;8.998;2022-08-24T02:56:53;1999.90;;;999.90;;
19402;SDS011;9837;48.888;8.998;2022-08-24T02:59:19;1999.90;;;999.90;;
19402;SDS011;9837;48.888;8.998;2022-08-24T03:01:46;1999.90;;;999.90;;
19402;SDS011;9837;48.888;8.998;2022-08-24T03:04:12;1999.90;;;999.90;;
19402;SDS011;9837;48.888;8.998;2022-08-24T03:06:38;1999.90;;;999.90;;
19402;SDS011;9837;48.888;8.998;2022-08-24T03:09:04;1999.90;;;999.90;;
19402;SDS011;9837;48.888;8.998;2022-08-24T03:11:30;1999.90;;;999.90;;
19402;SDS011;9837;48.888;8.998;2022-08-24T03:13:58;1999.90;;;999.90;;
19402;SDS011;9837;48.888;8.998;2022-08-24T03:16:25;1999.90;;;999.90;;
19402;SDS011;9837;48.888;8.998;2022-08-24T03:18:52;1999.90;;;999.90;;
19402;SDS011;9837;48.888;8.998;2022-08-24T03:21:18;1999.90;;;999.90;;
19402;SDS011;9837;48.888;8.998;2022-08-24T03:23:44;1999.90;;;999.90;;
19402;SDS011;9837;48.888;8.998;2022-08-24T03:26:11;1999.90;;;999.90;;
19402;SDS011;9837;48.888;8.998;2022-08-24T03:28:37;1999.90;;;999.90;;
19402;SDS011;9837;48.888;8.998;2022-08-24T03:31:03;1999.90;;;999.90;;
19402;SDS011;9837;48.888;8.998;2022-08-24T03:33:29;1999.90;;;999.90;;
19402;SDS011;9837;48.888;8.998;2022-08-24T03:35:55;1999.90;;;999.90;;
19402;SDS011;9837;48.888;8.998;2022-08-24T03:38:21;1999.90;;;999.90;;
19402;SDS011;9837;48.888;8.998;2022-08-24T03:51:10;1999.90;;;999.90;;
19402;SDS011;9837;48.888;8.998;2022-08-24T04:00:51;1999.90;;;999.90;;
19402;SDS011;9837;48.888;8.998;2022-08-24T05:02:27;1999.90;;;999.90;;
19402;SDS011;9837;48.888;8.998;2022-08-24T05:04:55;1999.90;;;999.90;;
19402;SDS011;9837;48.888;8.998;2022-08-24T05:07:21;1999.90;;;999.90;;
19402;SDS011;9837;48.888;8.998;2022-08-24T05:09:47;1999.90;;;999.90;;
19402;SDS011;9837;48.888;8.998;2022-08-24T05:12:14;1999.90;;;999.90;;
19402;SDS011;9837;48.888;8.998;2022-08-24T05:14:46;1999.90;;;999.90;;
19402;SDS011;9837;48.888;8.998;2022-08-24T05:17:15;1999.90;;;999.90;;
19402;SDS011;9837;48.888;8.998;2022-08-24T05:19:53;1999.90;;;999.90;;
19402;SDS011;9837;48.888;8.998;2022-08-24T05:22:21;1999.90;;;999.90;;
19402;SDS011;9837;48.888;8.998;2022-08-24T05:25:05;1999.90;;;999.90;;
19402;SDS011;9837;48.888;8.998;2022-08-24T05:27:38;1999.90;;;999.90;;
19402;SDS011;9837;48.888;8.998;2022-08-24T05:30:23;1999.90;;;999.90;;
19402;SDS011;9837;48.888;8.998;2022-08-24T05:32:59;1999.90;;;999.90;;
19402;SDS011;9837;48.888;8.998;2022-08-24T05:35:28;1999.90;;;999.90;;
19402;SDS011;9837;48.888;8.998;2022-08-24T05:41:45;1999.90;;;999.90;;
19402;SDS011;9837;48.888;8.998;2022-08-24T06:16:51;1999.90;;;999.90;;
19402;SDS011;9837;48.888;8.998;2022-08-24T06:19:49;1999.90;;;999.90;;
19402;SDS011;9837;48.888;8.998;2022-08-24T06:22:55;1999.90;;;999.90;;
19402;SDS011;9837;48.888;8.998;2022-08-24T06:29:12;1999.90;;;999.90;;
19402;SDS011;9837;48.888;8.998;2022-08-24T06:32:35;1999.90;;;999.90;;
19402;SDS011;9837;48.888;8.998;2022-08-24T06:35:27;1999.90;;;999.90;;
19402;SDS011;9837;48.888;8.998;2022-08-24T06:38:13;1999.90;;;999.90;;
19402;SDS011;9837;48.888;8.998;2022-08-24T06:40:41;1999.90;;;999.90;;
19402;SDS011;9837;48.888;8.998;2022-08-24T06:43:25;1999.90;;;999.90;;
19402;SDS011;9837;48.888;8.998;2022-08-24T06:46:29;1999.90;;;999.90;;
19402;SDS011;9837;48.888;8.998;2022-08-24T06:48:56;1999.90;;;999.90;;
19402;SDS011;9837;48.888;8.998;2022-08-24T06:51:27;1999.90;;;999.90;;
19402;SDS011;9837;48.888;8.998;2022-08-24T06:54:03;1999.90;;;999.90;;
19402;SDS011;9837;48.888;8.998;2022-08-24T06:56:38;1999.90;;;999.90;;
19402;SDS011;9837;48.888;8.998;2022-08-24T06:59:08;1999.90;;;999.90;;
19402;SDS011;9837;48.888;8.998;2022-08-24T07:05:16;1999.90;;;999.90;;
19402;SDS011;9837;48.888;8.998;2022-08-24T07:07:55;1999.90;;;999.90;;
19402;SDS011;9837;48.888;8.998;2022-08-24T07:11:02;1999.90;;;999.90;;
19402;SDS011;9837;48.888;8.998;2022-08-24T07:14:26;1999.90;;;999.90;;
19402;SDS011;9837;48.888;8.998;2022-08-24T07:34:28;1999.90;;;999.90;;
19402;SDS011;9837;48.888;8.998;2022-08-24T07:37:32;1999.90;;;999.90;;
19402;SDS011;9837;48.888;8.998;2022-08-24T07:53:52;1999.90;;;999.90;;
19402;SDS011;9837;48.888;8.998;2022-08-24T07:56:18;1999.90;;;999.90;;
19402;SDS011;9837;48.888;8.998;2022-08-24T07:58:45;1999.90;;;999.90;;
19402;SDS011;9837;48.888;8.998;2022-08-24T08:01:12;1999.90;;;999.90;;
19402;SDS011;9837;48.888;8.998;2022-08-24T08:03:38;1999.90;;;999.90;;
19402;SDS011;9837;48.888;8.998;2022-08-24T08:06:05;1999.90;;;999.90;;
19402;SDS011;9837;48.888;8.998;2022-08-24T08:08:36;1999.90;;;999.90;;
19402;SDS011;9837;48.888;8.998;2022-08-24T08:11:02;1999.90;;;999.90;;
19402;SDS011;9837;48.888;8.998;2022-08-24T08:13:29;1999.90;;;999.90;;
19402;SDS011;9837;48.888;8.998;2022-08-24T08:15:55;1999.90;;;999.90;;
19402;SDS011;9837;48.888;8.998;2022-08-24T08:18:22;1999.90;;;999.90;;
19402;SDS011;9837;48.888;8.998;2022-08-24T08:20:48;1999.90;;;999.90;;
19402;SDS011;9837;48.888;8.998;2022-08-24T08:23:30;1999.90;;;999.90;;
19402;SDS011;9837;48.888;8.998;2022-08-24T08:29:46;1999.90;;;999.90;;
19402;SDS011;9837;48.888;8.998;2022-08-24T08:35:35;1999.90;;;999.90;;
19402;SDS011;9837;48.888;8.998;2022-08-24T08:50:16;1999.90;;;999.90;;
19402;SDS011;9837;48.888;8.998;2022-08-24T09:47:04;1565.28;;;810.88;;
19402;SDS011;9837;48.888;8.998;2022-08-24T10:56:12;1554.32;;;800.85;;
19402;SDS011;9837;48.888;8.998;2022-08-24T11:10:04;241.82;;;225.77;;
19402;SDS011;9837;48.888;8.998;2022-08-24T11:12:34;284.65;;;268.08;;
19402;SDS011;9837;48.888;8.998;2022-08-24T11:18:07;1999.90;;;999.90;;
19402;SDS011;9837;48.888;8.998;2022-08-24T11:20:38;1999.90;;;999.90;;
19402;SDS011;9837;48.888;8.998;2022-08-24T11:25:40;1999.90;;;999.90;;
19402;SDS011;9837;48.888;8.998;2022-08-24T11:28:22;356.30;;;334.25;;
19402;SDS011;9837;48.888;8.998;2022-08-24T11:30:50;1175.82;;;664.97;;
19402;SDS011;9837;48.888;8.998;2022-08-24T11:33:32;251.73;;;236.68;;
19402;SDS011;9837;48.888;8.998;2022-08-24T11:36:00;1999.90;;;999.90;;
19402;SDS011;9837;48.888;8.998;2022-08-24T11:38:30;1608.72;;;850.90;;
19402;SDS011;9837;48.888;8.998;2022-08-24T11:56:40;1999.90;;;999.90;;
19402;SDS011;9837;48.888;8.998;2022-08-24T12:02:17;404.17;;;375.30;;
19402;SDS011;9837;48.888;8.998;2022-08-24T12:07:44;355.88;;;327.10;;
19402;SDS011;9837;48.888;8.998;2022-08-24T12:10:25;1999.90;;;999.90;;
19402;SDS011;9837;48.888;8.998;2022-08-24T12:12:59;1999.90;;;999.90;;
19402;SDS011;9837;48.888;8.998;2022-08-24T12:15:41;1999.90;;;999.90;;
19402;SDS011;9837;48.888;8.998;2022-08-24T12:21:16;1999.90;;;999.90;;
19402;SDS011;9837;48.888;8.998;2022-08-24T12:23:50;1999.90;;;999.90;;
19402;SDS011;9837;48.888;8.998;2022-08-24T12:31:45;1581.97;;;824.45;;
19402;SDS011;9837;48.888;8.998;2022-08-24T12:34:21;1999.90;;;999.90;;
19402;SDS011;9837;48.888;8.998;2022-08-24T12:39:26;1999.90;;;999.90;;
19402;SDS011;9837;48.888;8.998;2022-08-24T12:42:21;1999.90;;;999.90;;
19402;SDS011;9837;48.888;8.998;2022-08-24T12:44:51;1582.10;;;824.35;;
19402;SDS011;9837;48.888;8.998;2022-08-24T12:47:21;1999.90;;;999.90;;
19402;SDS011;9837;48.888;8.998;2022-08-24T12:49:56;1999.90;;;999.90;;
19402;SDS011;9837;48.888;8.998;2022-08-24T13:00:19;1999.90;;;999.90;;
19402;SDS011;9837;48.888;8.998;2022-08-24T13:06:06;1999.90;;;999.90;;
19402;SDS011;9837;48.888;8.998;2022-08-24T13:09:03;1999.90;;;999.90;;
19402;SDS011;9837;48.888;8.998;2022-08-24T13:11:37;1999.90;;;999.90;;
19402;SDS011;9837;48.888;8.998;2022-08-24T13:14:05;1999.90;;;999.90;;
19402;SDS011;9837;48.888;8.998;2022-08-24T13:21:57;1155.72;;;641.25;;
19402;SDS011;9837;48.888;8.998;2022-08-24T13:26:55;1088.28;;;579.15;;
19402;SDS011;9837;48.888;8.998;2022-08-24T13:29:25;1999.90;;;999.90;;
19402;SDS011;9837;48.888;8.998;2022-08-24T13:31:57;1999.90;;;999.90;;
19402;SDS011;9837;48.888;8.998;2022-08-24T13:34:41;1999.90;;;999.90;;
19402;SDS011;9837;48.888;8.998;2022-08-24T13:47:48;1999.90;;;999.90;;
19402;SDS011;9837;48.888;8.998;2022-08-24T13:50:30;1999.90;;;999.90;;
19402;SDS011;9837;48.888;8.998;2022-08-24T14:07:01;1999.90;;;999.90;;
19402;SDS011;9837;48.888;8.998;2022-08-24T14:34:27;1286.05;;;763.20;;
19402;SDS011;9837;48.888;8.998;2022-08-24T14:39:49;486.02;;;448.13;;
19402;SDS011;9837;48.888;8.998;2022-08-24T14:43:18;1610.60;;;851.30;;
19402;SDS011;9837;48.888;8.998;2022-08-24T14:53:48;546.22;;;504.67;;
19402;SDS011;9837;48.888;8.998;2022-08-24T14:59:05;1999.90;;;999.90;;
19402;SDS011;9837;48.888;8.998;2022-08-24T15:01:42;368.85;;;342.58;;
19402;SDS011;9837;48.888;8.998;2022-08-24T15:06:47;507.70;;;471.65;;
19402;SDS011;9837;48.888;8.998;2022-08-24T15:11:44;1607.55;;;849.78;;
19402;SDS011;9837;48.888;8.998;2022-08-24T15:14:24;490.63;;;457.95;;
19402;SDS011;9837;48.888;8.998;2022-08-24T15:17:01;489.98;;;456.55;;
19402;SDS011;9837;48.888;8.998;2022-08-24T15:27:39;1601.25;;;843.30;;
19402;SDS011;9837;48.888;8.998;2022-08-24T15:30:31;367.98;;;341.67;;
19402;SDS011;9837;48.888;8.998;2022-08-24T15:35:32;847.90;;;573.60;;
19402;SDS011;9837;48.888;8.998;2022-08-24T15:40:41;848.10;;;574.65;;
19402;SDS011;9837;48.888;8.998;2022-08-24T15:43:07;384.88;;;358.75;;
19402;SDS011;9837;48.888;8.998;2022-08-24T15:45:35;353.88;;;329.75;;
19402;SDS011;9837;48.888;8.998;2022-08-24T15:48:09;401.20;;;373.25;;
19402;SDS011;9837;48.888;8.998;2022-08-24T15:50:40;358.42;;;336.13;;
19402;SDS011;9837;48.888;8.998;2022-08-24T15:55:46;266.27;;;246.88;;
19402;SDS011;9837;48.888;8.998;2022-08-24T15:58:25;192.10;;;181.13;;
19402;SDS011;9837;48.888;8.998;2022-08-24T16:00:52;171.90;;;162.52;;
19402;SDS011;9837;48.888;8.998;2022-08-24T16:03:50;234.98;;;221.30;;
19402;SDS011;9837;48.888;8.998;2022-08-24T16:06:23;278.33;;;259.48;;
19402;SDS011;9837;48.888;8.998;2022-08-24T16:08:52;259.23;;;243.82;;
19402;SDS011;9837;48.888;8.998;2022-08-24T16:11:20;171.63;;;161.75;;
19402;SDS011;9837;48.888;8.998;2022-08-24T16:13:54;269.95;;;250.57;;
19402;SDS011;9837;48.888;8.998;2022-08-24T16:16:29;157.55;;;147.30;;
19402;SDS011;9837;48.888;8.998;2022-08-24T16:18:58;143.90;;;135.88;;
19402;SDS011;9837;48.888;8.998;2022-08-24T16:23:58;128.68;;;121.53;;
19402;SDS011;9837;48.888;8.998;2022-08-24T16:26:29;128.55;;;121.90;;
19402;SDS011;9837;48.888;8.998;2022-08-24T16:28:55;123.25;;;116.97;;
19402;SDS011;9837;48.888;8.998;2022-08-24T16:36:47;140.05;;;132.75;;
19402;SDS011;9837;48.888;8.998;2022-08-24T16:39:13;134.93;;;127.90;;
19402;SDS011;9837;48.888;8.998;2022-08-24T16:41:40;114.80;;;108.57;;
19402;SDS011;9837;48.888;8.998;2022-08-24T16:44:06;150.75;;;141.65;;
19402;SDS011;9837;48.888;8.998;2022-08-24T16:46:34;121.88;;;115.80;;
19402;SDS011;9837;48.888;8.998;2022-08-24T16:49:00;127.03;;;120.65;;
19402;SDS011;9837;48.888;8.998;2022-08-24T16:51:26;1088.95;;;583.65;;
19402;SDS011;9837;48.888;8.998;2022-08-24T16:53:52;110.88;;;105.15;;
19402;SDS011;9837;48.888;8.998;2022-08-24T16:56:18;130.13;;;123.45;;
19402;SDS011;9837;48.888;8.998;2022-08-24T16:58:45;91.80;;;87.00;;
19402;SDS011;9837;48.888;8.998;2022-08-24T17:01:11;82.28;;;78.00;;
19402;SDS011;9837;48.888;8.998;2022-08-24T17:03:38;106.30;;;100.38;;
19402;SDS011;9837;48.888;8.998;2022-08-24T17:06:03;103.35;;;97.80;;
19402;SDS011;9837;48.888;8.998;2022-08-24T17:08:29;86.53;;;81.72;;
19402;SDS011;9837;48.888;8.998;2022-08-24T17:10:56;95.22;;;90.57;;
19402;SDS011;9837;48.888;8.998;2022-08-24T17:13:22;123.57;;;116.20;;
19402;SDS011;9837;48.888;8.998;2022-08-24T17:15:48;114.65;;;108.85;;
19402;SDS011;9837;48.888;8.998;2022-08-24T17:18:14;99.45;;;94.28;;
19402;SDS011;9837;48.888;8.998;2022-08-24T17:20:44;103.03;;;97.32;;
19402;SDS011;9837;48.888;8.998;2022-08-24T17:23:10;77.28;;;73.28;;
19402;SDS011;9837;48.888;8.998;2022-08-24T17:25:35;123.82;;;117.20;;
19402;SDS011;9837;48.888;8.998;2022-08-24T17:28:04;128.68;;;121.88;;
19402;SDS011;9837;48.888;8.998;2022-08-24T17:30:30;94.38;;;89.40;;
19402;SDS011;9837;48.888;8.998;2022-08-24T17:32:56;81.00;;;77.03;;
19402;SDS011;9837;48.888;8.998;2022-08-24T17:35:23;74.40;;;70.28;;
19402;SDS011;9837;48.888;8.998;2022-08-24T17:37:49;68.43;;;64.82;;
19402;SDS011;9837;48.888;8.998;2022-08-24T17:40:17;68.57;;;64.65;;
19402;SDS011;9837;48.888;8.998;2022-08-24T17:42:44;73.95;;;70.15;;
19402;SDS011;9837;48.888;8.998;2022-08-24T17:45:10;70.65;;;66.78;;
19402;SDS011;9837;48.888;8.998;2022-08-24T17:47:40;70.60;;;66.82;;
19402;SDS011;9837;48.888;8.998;2022-08-24T17:50:07;112.90;;;106.78;;
19402;SDS011;9837;48.888;8.998;2022-08-24T17:52:35;73.22;;;69.18;;
19402;SDS011;9837;48.888;8.998;2022-08-24T17:55:03;71.32;;;67.55;;
19402;SDS011;9837;48.888;8.998;2022-08-24T17:57:30;73.25;;;69.38;;
19402;SDS011;9837;48.888;8.998;2022-08-24T17:59:56;78.90;;;75.00;;
19402;SDS011;9837;48.888;8.998;2022-08-24T18:02:22;72.43;;;68.78;;
19402;SDS011;9837;48.888;8.998;2022-08-24T18:04:48;76.35;;;72.18;;
19402;SDS011;9837;48.888;8.998;2022-08-24T18:07:15;76.05;;;71.88;;
19402;SDS011;9837;48.888;8.998;2022-08-24T18:09:47;74.57;;;70.65;;
19402;SDS011;9837;48.888;8.998;2022-08-24T18:12:16;73.90;;;70.13;;
19402;SDS011;9837;48.888;8.998;2022-08-24T18:14:44;81.45;;;77.25;;
19402;SDS011;9837;48.888;8.998;2022-08-24T18:17:11;1039.28;;;537.15;;
19402;SDS011;9837;48.888;8.998;2022-08-24T18:19:41;75.85;;;71.93;;
19402;SDS011;9837;48.888;8.998;2022-08-24T18:22:08;1036.93;;;534.78;;
19402;SDS011;9837;48.888;8.998;2022-08-24T18:24:34;73.68;;;69.95;;
19402;SDS011;9837;48.888;8.998;2022-08-24T18:27:07;1518.15;;;767.15;;
19402;SDS011;9837;48.888;8.998;2022-08-24T18:29:37;1999.90;;;999.90;;
19402;SDS011;9837;48.888;8.998;2022-08-24T18:32:04;1999.90;;;999.90;;
19402;SDS011;9837;48.888;8.998;2022-08-24T18:34:30;1999.90;;;999.90;;
19402;SDS011;9837;48.888;8.998;2022-08-24T18:36:56;1999.90;;;999.90;;
19402;SDS011;9837;48.888;8.998;2022-08-24T18:39:22;1999.90;;;999.90;;
19402;SDS011;9837;48.888;8.998;2022-08-24T18:41:48;1999.90;;;999.90;;
19402;SDS011;9837;48.888;8.998;2022-08-24T18:44:18;1999.90;;;999.90;;
19402;SDS011;9837;48.888;8.998;2022-08-24T18:46:46;1999.90;;;999.90;;
19402;SDS011;9837;48.888;8.998;2022-08-24T18:49:13;1999.90;;;999.90;;
19402;SDS011;9837;48.888;8.998;2022-08-24T18:51:39;1999.90;;;999.90;;
19402;SDS011;9837;48.888;8.998;2022-08-24T18:54:10;1999.90;;;999.90;;
19402;SDS011;9837;48.888;8.998;2022-08-24T18:56:40;1999.90;;;999.90;;
19402;SDS011;9837;48.888;8.998;2022-08-24T18:59:06;1999.90;;;999.90;;
19402;SDS011;9837;48.888;8.998;2022-08-24T19:01:32;1999.90;;;999.90;;
19402;SDS011;9837;48.888;8.998;2022-08-24T19:04:21;1999.90;;;999.90;;
19402;SDS011;9837;48.888;8.998;2022-08-24T19:06:47;1999.90;;;999.90;;
19402;SDS011;9837;48.888;8.998;2022-08-24T19:09:13;1999.90;;;999.90;;
19402;SDS011;9837;48.888;8.998;2022-08-24T19:11:39;1999.90;;;999.90;;
19402;SDS011;9837;48.888;8.998;2022-08-24T19:14:05;1999.90;;;999.90;;
19402;SDS011;9837;48.888;8.998;2022-08-24T19:16:31;1999.90;;;999.90;;
19402;SDS011;9837;48.888;8.998;2022-08-24T19:18:57;1999.90;;;999.90;;
19402;SDS011;9837;48.888;8.998;2022-08-24T19:21:25;1999.90;;;999.90;;
19402;SDS011;9837;48.888;8.998;2022-08-24T19:23:54;1999.90;;;999.90;;
19402;SDS011;9837;48.888;8.998;2022-08-24T19:26:22;1999.90;;;999.90;;
19402;SDS011;9837;48.888;8.998;2022-08-24T19:28:48;1999.90;;;999.90;;
19402;SDS011;9837;48.888;8.998;2022-08-24T19:31:14;1999.90;;;999.90;;
19402;SDS011;9837;48.888;8.998;2022-08-24T19:33:42;1999.90;;;999.90;;
19402;SDS011;9837;48.888;8.998;2022-08-24T19:36:10;1999.90;;;999.90;;
19402;SDS011;9837;48.888;8.998;2022-08-24T19:38:36;1999.90;;;999.90;;
19402;SDS011;9837;48.888;8.998;2022-08-24T19:41:03;1999.90;;;999.90;;
19402;SDS011;9837;48.888;8.998;2022-08-24T19:43:29;1999.90;;;999.90;;
19402;SDS011;9837;48.888;8.998;2022-08-24T19:45:56;1999.90;;;999.90;;
19402;SDS011;9837;48.888;8.998;2022-08-24T19:48:33;1999.90;;;999.90;;
19402;SDS011;9837;48.888;8.998;2022-08-24T19:51:03;1999.90;;;999.90;;
19402;SDS011;9837;48.888;8.998;2022-08-24T19:53:29;1999.90;;;999.90;;
19402;SDS011;9837;48.888;8.998;2022-08-24T19:55:58;1999.90;;;999.90;;
19402;SDS011;9837;48.888;8.998;2022-08-24T20:01:03;1999.90;;;999.90;;
19402;SDS011;9837;48.888;8.998;2022-08-24T20:03:33;1999.90;;;999.90;;
19402;SDS011;9837;48.888;8.998;2022-08-24T20:05:59;1999.90;;;999.90;;
19402;SDS011;9837;48.888;8.998;2022-08-24T20:08:25;1999.90;;;999.90;;
19402;SDS011;9837;48.888;8.998;2022-08-24T20:10:51;1999.90;;;999.90;;
19402;SDS011;9837;48.888;8.998;2022-08-24T20:13:22;1999.90;;;999.90;;
19402;SDS011;9837;48.888;8.998;2022-08-24T20:15:48;1999.90;;;999.90;;
19402;SDS011;9837;48.888;8.998;2022-08-24T20:18:14;1999.90;;;999.90;;
19402;SDS011;9837;48.888;8.998;2022-08-24T20:20:40;1999.90;;;999.90;;
19402;SDS011;9837;48.888;8.998;2022-08-24T20:23:06;1999.90;;;999.90;;
19402;SDS011;9837;48.888;8.998;2022-08-24T20:25:33;1999.90;;;999.90;;
19402;SDS011;9837;48.888;8.998;2022-08-24T20:28:00;1999.90;;;999.90;;
19402;SDS011;9837;48.888;8.998;2022-08-24T20:30:28;1999.90;;;999.90;;
19402;SDS011;9837;48.888;8.998;2022-08-24T20:32:55;1999.90;;;999.90;;
19402;SDS011;9837;48.888;8.998;2022-08-24T20:35:22;1999.90;;;999.90;;
19402;SDS011;9837;48.888;8.998;2022-08-24T20:37:50;1999.90;;;999.90;;
19402;SDS011;9837;48.888;8.998;2022-08-24T20:40:17;1999.90;;;999.90;;
19402;SDS011;9837;48.888;8.998;2022-08-24T20:42:43;1999.90;;;999.90;;
19402;SDS011;9837;48.888;8.998;2022-08-24T20:45:09;1999.90;;;999.90;;
19402;SDS011;9837;48.888;8.998;2022-08-24T20:47:42;1999.90;;;999.90;;
19402;SDS011;9837;48.888;8.998;2022-08-24T20:50:08;1999.90;;;999.90;;
19402;SDS011;9837;48.888;8.998;2022-08-24T20:52:34;1999.90;;;999.90;;
19402;SDS011;9837;48.888;8.998;2022-08-24T20:55:00;1999.90;;;999.90;;
19402;SDS011;9837;48.888;8.998;2022-08-24T20:57:30;1999.90;;;999.90;;
19402;SDS011;9837;48.888;8.998;2022-08-24T20:59:56;1999.90;;;999.90;;
